createdAt,value
2023-04-27T00:00:33.756Z,224.63
2023-04-27T00:01:33.814Z,223.18
2023-04-27T00:02:33.953Z,204.51
2023-04-27T00:03:34.006Z,191.18
2023-04-27T00:04:34.004Z,203.23
2023-04-27T00:05:33.892Z,183.30
2023-04-27T00:06:33.880Z,187.17
2023-04-27T00:07:33.948Z,194.53
2023-04-27T00:08:33.981Z,198.67
2023-04-27T00:09:34.009Z,205.56
2023-04-27T00:10:34.054Z,218.57
2023-04-27T00:11:34.079Z,229.48
2023-04-27T00:12:34.107Z,221.83
2023-04-27T00:13:34.075Z,223.74
2023-04-27T00:14:34.088Z,229.11
2023-04-27T00:15:34.154Z,251.25
2023-04-27T00:16:34.238Z,199.09
2023-04-27T00:17:34.220Z,219.41
2023-04-27T00:18:34.176Z,192.72
2023-04-27T00:19:34.225Z,189.99
2023-04-27T00:20:34.257Z,200.39
2023-04-27T00:21:34.292Z,178.35
2023-04-27T00:22:34.322Z,146.36
2023-04-27T00:23:34.710Z,144.79
2023-04-27T00:24:34.350Z,142.14
2023-04-27T00:25:34.373Z,146.34
2023-04-27T00:26:34.415Z,183.37
2023-04-27T00:27:34.437Z,189.02
2023-04-27T00:28:34.409Z,206.32
2023-04-27T00:29:34.414Z,150.75
2023-04-27T00:30:34.432Z,186.81
2023-04-27T00:31:34.485Z,144.73
2023-04-27T00:32:34.591Z,136.52
2023-04-27T00:33:34.553Z,131.22
2023-04-27T00:34:34.552Z,138.39
2023-04-27T00:35:34.628Z,152.21
2023-04-27T00:36:34.619Z,154.50
2023-04-27T00:37:34.654Z,151.03
2023-04-27T00:38:34.662Z,160.27
2023-04-27T00:39:34.719Z,159.61
2023-04-27T00:40:34.707Z,145.05
2023-04-27T00:41:34.713Z,136.10
2023-04-27T00:42:34.783Z,138.29
2023-04-27T00:43:34.799Z,164.45
2023-04-27T00:44:34.799Z,155.63
2023-04-27T00:45:34.814Z,171.44
2023-04-27T00:46:34.830Z,145.78
2023-04-27T00:47:34.920Z,153.77
2023-04-27T00:48:34.886Z,145.35
2023-04-27T00:49:34.879Z,149.17
2023-04-27T00:50:34.892Z,142.63
2023-04-27T00:51:34.901Z,135.92
2023-04-27T00:52:34.911Z,135.99
2023-04-27T00:53:34.912Z,143.72
2023-04-27T00:54:34.964Z,176.74
2023-04-27T00:55:34.982Z,175.00
2023-04-27T00:56:34.997Z,151.34
2023-04-27T00:57:35.054Z,144.18
2023-04-27T00:58:35.049Z,203.44
2023-04-27T00:59:35.016Z,186.58
2023-04-27T01:00:35.044Z,184.47
2023-04-27T01:01:35.089Z,170.65
2023-04-27T01:02:35.243Z,159.69
2023-04-27T01:03:35.310Z,148.92
2023-04-27T01:04:35.242Z,137.27
2023-04-27T01:05:35.142Z,140.48
2023-04-27T01:06:35.164Z,170.44
2023-04-27T01:07:35.218Z,143.82
2023-04-27T01:08:36.261Z,157.97
2023-04-27T01:09:35.235Z,192.90
2023-04-27T01:10:35.257Z,176.45
2023-04-27T01:11:35.209Z,185.68
2023-04-27T01:12:35.283Z,192.54
2023-04-27T01:13:35.256Z,162.94
2023-04-27T01:14:35.275Z,159.35
2023-04-27T01:15:35.308Z,155.17
2023-04-27T01:16:35.394Z,160.69
2023-04-27T01:17:35.401Z,155.39
2023-04-27T01:18:35.394Z,166.51
2023-04-27T01:19:35.399Z,164.28
2023-04-27T01:20:35.434Z,162.14
2023-04-27T01:21:35.426Z,177.64
2023-04-27T01:22:35.504Z,174.74
2023-04-27T01:23:35.548Z,161.09
2023-04-27T01:24:35.603Z,161.66
2023-04-27T01:25:35.595Z,147.54
2023-04-27T01:26:35.637Z,154.47
2023-04-27T01:27:35.720Z,142.61
2023-04-27T01:28:35.705Z,154.61
2023-04-27T01:29:35.735Z,136.16
2023-04-27T01:30:35.773Z,141.09
2023-04-27T01:31:35.866Z,134.60
2023-04-27T01:32:35.886Z,142.74
2023-04-27T01:33:35.860Z,143.44
2023-04-27T01:34:35.895Z,147.74
2023-04-27T01:35:35.927Z,150.08
2023-04-27T01:36:35.998Z,138.15
2023-04-27T01:37:36.027Z,148.30
2023-04-27T01:38:36.097Z,138.47
2023-04-27T01:39:36.116Z,144.25
2023-04-27T01:40:36.156Z,154.92
2023-04-27T01:41:36.223Z,178.87
2023-04-27T01:42:36.269Z,181.63
2023-04-27T01:43:36.326Z,192.23
2023-04-27T01:44:36.335Z,164.09
2023-04-27T01:45:36.388Z,157.72
2023-04-27T01:46:36.445Z,156.94
2023-04-27T01:47:36.499Z,158.74
2023-04-27T01:48:36.521Z,149.98
2023-04-27T01:49:36.518Z,174.82
2023-04-27T01:50:36.532Z,157.76
2023-04-27T01:51:36.604Z,158.70
2023-04-27T01:52:36.648Z,176.43
2023-04-27T01:53:36.648Z,172.12
2023-04-27T01:54:36.688Z,186.06
2023-04-27T01:55:36.699Z,204.12
2023-04-27T01:56:36.772Z,188.52
2023-04-27T01:57:36.845Z,178.58
2023-04-27T01:58:36.862Z,162.60
2023-04-27T01:59:36.890Z,167.29
2023-04-27T02:00:36.961Z,180.40
2023-04-27T02:01:37.027Z,165.66
2023-04-27T02:02:37.137Z,180.46
2023-04-27T02:03:37.062Z,179.44
2023-04-27T02:04:37.147Z,181.27
2023-04-27T02:05:37.039Z,180.62
2023-04-27T02:06:37.087Z,180.66
2023-04-27T02:07:37.144Z,175.48
2023-04-27T02:08:37.205Z,176.32
2023-04-27T02:09:37.230Z,172.40
2023-04-27T02:10:37.262Z,195.35
2023-04-27T02:11:37.276Z,202.90
2023-04-27T02:12:37.303Z,208.98
2023-04-27T02:13:37.318Z,195.50
2023-04-27T02:14:37.382Z,216.40
2023-04-27T02:15:37.386Z,196.02
2023-04-27T02:16:37.471Z,177.32
2023-04-27T02:17:37.553Z,187.78
2023-04-27T02:18:37.528Z,179.54
2023-04-27T02:19:37.556Z,164.97
2023-04-27T02:20:37.556Z,187.69
2023-04-27T02:21:37.642Z,203.71
2023-04-27T02:22:37.649Z,219.32
2023-04-27T02:23:37.696Z,182.60
2023-04-27T02:24:37.712Z,197.10
2023-04-27T02:25:37.764Z,190.91
2023-04-27T02:26:37.801Z,174.86
2023-04-27T02:27:37.824Z,176.62
2023-04-27T02:28:37.852Z,170.95
2023-04-27T02:29:37.903Z,166.13
2023-04-27T02:30:37.951Z,177.04
2023-04-27T02:31:37.983Z,165.36
2023-04-27T02:32:37.960Z,161.21
2023-04-27T02:33:38.021Z,166.17
2023-04-27T02:34:38.017Z,181.05
2023-04-27T02:35:38.034Z,174.12
2023-04-27T02:36:37.998Z,199.77
2023-04-27T02:37:38.068Z,176.90
2023-04-27T02:38:38.097Z,170.25
2023-04-27T02:39:38.138Z,156.24
2023-04-27T02:40:38.180Z,147.95
2023-04-27T02:41:38.270Z,152.92
2023-04-27T02:42:38.211Z,162.74
2023-04-27T02:43:38.302Z,236.88
2023-04-27T02:44:38.310Z,228.63
2023-04-27T02:45:38.353Z,166.13
2023-04-27T02:46:38.405Z,150.66
2023-04-27T02:47:38.472Z,146.67
2023-04-27T02:48:38.513Z,145.57
2023-04-27T02:49:38.559Z,160.36
2023-04-27T02:50:38.513Z,168.31
2023-04-27T02:51:38.556Z,193.53
2023-04-27T02:52:38.589Z,176.57
2023-04-27T02:53:38.600Z,167.34
2023-04-27T02:54:38.666Z,154.62
2023-04-27T02:55:38.732Z,224.81
2023-04-27T02:56:38.793Z,247.62
2023-04-27T02:57:38.852Z,231.35
2023-04-27T02:58:38.860Z,214.89
2023-04-27T02:59:38.912Z,194.45
2023-04-27T03:00:38.943Z,198.68
2023-04-27T03:01:39.104Z,213.27
2023-04-27T03:02:39.212Z,223.98
2023-04-27T03:03:39.337Z,235.80
2023-04-27T03:04:39.089Z,257.29
2023-04-27T03:05:39.069Z,257.50
2023-04-27T03:06:39.096Z,257.60
2023-04-27T03:07:39.130Z,256.02
2023-04-27T03:08:39.212Z,252.21
2023-04-27T03:09:39.219Z,222.82
2023-04-27T03:10:39.226Z,219.57
2023-04-27T03:11:39.247Z,219.54
2023-04-27T03:12:39.300Z,223.10
2023-04-27T03:13:39.303Z,222.22
2023-04-27T03:14:39.315Z,214.64
2023-04-27T03:15:39.335Z,225.82
2023-04-27T03:16:39.376Z,209.09
2023-04-27T03:17:39.373Z,200.56
2023-04-27T03:18:39.357Z,224.65
2023-04-27T03:19:39.380Z,225.46
2023-04-27T03:20:39.400Z,227.01
2023-04-27T03:21:39.407Z,241.69
2023-04-27T03:22:39.408Z,196.17
2023-04-27T03:23:39.412Z,200.76
2023-04-27T03:24:39.443Z,176.41
2023-04-27T03:25:39.505Z,165.32
2023-04-27T03:26:39.496Z,166.32
2023-04-27T03:27:39.562Z,174.77
2023-04-27T03:28:39.548Z,190.88
2023-04-27T03:29:39.576Z,204.09
2023-04-27T03:30:39.556Z,194.58
2023-04-27T03:31:39.642Z,198.35
2023-04-27T03:32:39.645Z,196.60
2023-04-27T03:33:39.678Z,212.72
2023-04-27T03:34:39.652Z,237.73
2023-04-27T03:35:39.720Z,250.67
2023-04-27T03:36:39.713Z,260.69
2023-04-27T03:37:39.752Z,246.34
2023-04-27T03:38:39.793Z,255.28
2023-04-27T03:39:39.771Z,257.67
2023-04-27T03:40:39.795Z,251.27
2023-04-27T03:41:39.841Z,247.79
2023-04-27T03:42:39.923Z,250.89
2023-04-27T03:43:39.931Z,251.48
2023-04-27T03:44:40.059Z,255.60
2023-04-27T03:45:40.077Z,243.15
2023-04-27T03:46:40.097Z,244.38
2023-04-27T03:47:40.267Z,240.31
2023-04-27T03:48:40.172Z,223.40
2023-04-27T03:49:40.235Z,212.64
2023-04-27T03:50:40.256Z,219.27
2023-04-27T03:51:40.322Z,213.63
2023-04-27T03:52:40.389Z,218.35
2023-04-27T03:53:40.372Z,225.84
2023-04-27T03:54:40.464Z,217.93
2023-04-27T03:55:40.512Z,219.18
2023-04-27T03:56:40.554Z,211.64
2023-04-27T03:57:40.655Z,199.51
2023-04-27T03:58:40.644Z,195.64
2023-04-27T03:59:40.660Z,180.08
2023-04-27T04:00:40.756Z,186.46
2023-04-27T04:01:40.858Z,196.72
2023-04-27T04:02:40.924Z,190.08
2023-04-27T04:03:40.938Z,195.40
2023-04-27T04:04:41.110Z,193.57
2023-04-27T04:05:40.915Z,193.78
2023-04-27T04:06:40.904Z,198.44
2023-04-27T04:07:40.944Z,203.65
2023-04-27T04:08:41.000Z,196.04
2023-04-27T04:09:41.070Z,192.12
2023-04-27T04:10:41.071Z,196.66
2023-04-27T04:11:41.123Z,199.23
2023-04-27T04:12:41.139Z,195.66
2023-04-27T04:13:41.176Z,209.60
2023-04-27T04:14:41.193Z,210.61
2023-04-27T04:15:41.276Z,201.87
2023-04-27T04:16:41.269Z,196.58
2023-04-27T04:17:41.393Z,199.34
2023-04-27T04:18:41.333Z,208.62
2023-04-27T04:19:41.424Z,191.30
2023-04-27T04:20:41.426Z,204.00
2023-04-27T04:21:41.440Z,228.63
2023-04-27T04:22:41.471Z,224.37
2023-04-27T04:23:41.460Z,221.12
2023-04-27T04:24:41.557Z,214.13
2023-04-27T04:25:41.656Z,213.60
2023-04-27T04:26:41.606Z,219.28
2023-04-27T04:27:41.658Z,215.44
2023-04-27T04:28:41.697Z,218.03
2023-04-27T04:29:41.717Z,231.36
2023-04-27T04:30:41.790Z,240.50
2023-04-27T04:31:41.827Z,232.11
2023-04-27T04:32:41.838Z,221.08
2023-04-27T04:33:41.820Z,233.88
2023-04-27T04:34:41.881Z,236.55
2023-04-27T04:35:41.888Z,238.94
2023-04-27T04:36:41.940Z,237.17
2023-04-27T04:37:42.054Z,241.58
2023-04-27T04:38:41.987Z,242.54
2023-04-27T04:39:42.003Z,239.66
2023-04-27T04:40:43.222Z,242.38
2023-04-27T04:41:42.068Z,244.42
2023-04-27T04:42:42.086Z,241.30
2023-04-27T04:43:42.033Z,231.69
2023-04-27T04:44:42.057Z,218.14
2023-04-27T04:45:42.079Z,224.22
2023-04-27T04:46:42.092Z,227.11
2023-04-27T04:47:42.064Z,235.09
2023-04-27T04:48:42.062Z,230.49
2023-04-27T04:49:42.387Z,223.84
2023-04-27T04:50:42.098Z,226.22
2023-04-27T04:51:42.051Z,237.30
2023-04-27T04:52:42.024Z,231.63
2023-04-27T04:53:41.963Z,238.68
2023-04-27T04:54:41.949Z,239.70
2023-04-27T04:55:42.082Z,232.33
2023-04-27T04:56:41.966Z,233.25
2023-04-27T04:57:41.966Z,234.55
2023-04-27T04:58:41.979Z,232.95
2023-04-27T04:59:41.943Z,228.70
2023-04-27T05:00:41.905Z,220.22
2023-04-27T05:01:41.929Z,224.39
2023-04-27T05:02:43.624Z,232.62
2023-04-27T05:03:42.025Z,223.75
2023-04-27T05:04:41.935Z,229.98
2023-04-27T05:05:41.880Z,235.21
2023-04-27T05:06:41.867Z,226.57
2023-04-27T05:07:41.881Z,229.74
2023-04-27T05:08:41.868Z,226.31
2023-04-27T05:09:41.839Z,230.33
2023-04-27T05:10:41.855Z,237.70
2023-04-27T05:11:41.812Z,240.90
2023-04-27T05:12:41.838Z,228.70
2023-04-27T05:13:41.827Z,229.61
2023-04-27T05:14:41.823Z,230.01
2023-04-27T05:15:41.795Z,218.77
2023-04-27T05:16:41.911Z,242.51
2023-04-27T05:17:41.834Z,234.99
2023-04-27T05:18:42.222Z,238.45
2023-04-27T05:19:41.783Z,234.74
2023-04-27T05:20:41.807Z,231.84
2023-04-27T05:21:41.839Z,222.07
2023-04-27T05:22:41.851Z,231.24
2023-04-27T05:23:41.886Z,214.92
2023-04-27T05:24:41.942Z,218.27
2023-04-27T05:25:42.033Z,212.11
2023-04-27T05:26:41.978Z,234.39
2023-04-27T05:27:42.002Z,244.00
2023-04-27T05:28:42.035Z,248.62
2023-04-27T05:29:42.133Z,250.30
2023-04-27T05:30:42.097Z,249.83
2023-04-27T05:31:42.199Z,242.23
2023-04-27T05:32:42.149Z,249.40
2023-04-27T05:33:42.184Z,246.79
2023-04-27T05:34:42.230Z,245.45
2023-04-27T05:35:42.211Z,243.01
2023-04-27T05:36:42.268Z,235.51
2023-04-27T05:37:42.307Z,238.01
2023-04-27T05:38:42.323Z,243.30
2023-04-27T05:39:42.394Z,259.79
2023-04-27T05:40:42.345Z,231.24
2023-04-27T05:41:42.398Z,228.26
2023-04-27T05:42:42.459Z,232.31
2023-04-27T05:43:42.553Z,258.83
2023-04-27T05:44:42.549Z,221.28
2023-04-27T05:45:42.705Z,232.45
2023-04-27T05:46:42.671Z,240.84
2023-04-27T05:47:42.748Z,238.37
2023-04-27T05:48:42.785Z,251.06
2023-04-27T05:49:42.818Z,230.76
2023-04-27T05:50:42.807Z,225.27
2023-04-27T05:51:42.933Z,228.53
2023-04-27T05:52:42.926Z,229.69
2023-04-27T05:53:43.002Z,229.75
2023-04-27T05:54:43.003Z,228.66
2023-04-27T05:55:42.996Z,232.15
2023-04-27T05:56:43.042Z,229.18
2023-04-27T05:57:43.111Z,220.72
2023-04-27T05:58:43.108Z,232.41
2023-04-27T05:59:43.126Z,223.95
2023-04-27T06:00:43.121Z,233.82
2023-04-27T06:01:43.185Z,239.46
2023-04-27T06:02:43.426Z,247.41
2023-04-27T06:03:43.429Z,240.20
2023-04-27T06:04:51.283Z,231.06
2023-04-27T06:05:50.934Z,231.16
2023-04-27T06:06:43.291Z,231.22
2023-04-27T06:07:43.275Z,228.79
2023-04-27T06:08:44.052Z,212.53
2023-04-27T06:09:43.227Z,202.73
2023-04-27T06:10:43.284Z,206.59
2023-04-27T06:11:43.242Z,217.37
2023-04-27T06:12:45.760Z,214.85
2023-04-27T06:13:43.202Z,215.27
2023-04-27T06:14:50.823Z,214.98
2023-04-27T06:17:02.715Z,25.00
2023-04-27T06:18:02.778Z,25.00
2023-04-27T06:19:02.678Z,25.00
2023-04-27T06:20:02.688Z,25.00
2023-04-27T06:21:02.711Z,25.00
2023-04-27T06:22:02.727Z,51.06
2023-04-27T06:23:02.740Z,48.17
2023-04-27T06:24:04.297Z,62.12
2023-04-27T06:25:02.632Z,50.09
2023-04-27T06:26:02.679Z,2.43
2023-04-27T06:27:02.636Z,46.33
2023-04-27T06:28:02.611Z,26.34
2023-04-27T06:29:02.667Z,43.40
2023-04-27T06:30:02.716Z,37.22
2023-04-27T06:31:02.608Z,20.74
2023-04-27T06:32:02.725Z,86.29
2023-04-27T06:33:02.663Z,59.52
2023-04-27T06:34:02.633Z,63.30
2023-04-27T06:35:02.668Z,26.36
2023-04-27T06:36:02.682Z,25.04
2023-04-27T06:37:02.554Z,78.01
2023-04-27T06:38:02.953Z,101.51
2023-04-27T06:39:02.569Z,141.63
2023-04-27T06:40:02.653Z,58.33
2023-04-27T06:41:02.555Z,195.34
2023-04-27T06:42:02.576Z,86.57
2023-04-27T06:43:02.564Z,97.53
2023-04-27T06:44:02.551Z,98.06
2023-04-27T06:45:02.556Z,84.83
2023-04-27T06:46:02.578Z,95.47
2023-04-27T06:47:02.518Z,110.46
2023-04-27T06:48:02.854Z,118.82
2023-04-27T06:49:02.583Z,130.69
2023-04-27T06:50:02.638Z,169.96
2023-04-27T06:51:03.321Z,87.47
2023-04-27T06:52:02.887Z,62.71
2023-04-27T06:53:02.738Z,50.84
2023-04-27T06:54:02.726Z,53.43
2023-04-27T06:55:02.679Z,78.24
2023-04-27T06:56:02.790Z,126.83
2023-04-27T06:57:02.734Z,114.24
2023-04-27T06:58:02.757Z,20.94
2023-04-27T06:59:02.781Z,26.01
2023-04-27T07:00:02.827Z,0.00
2023-04-27T07:01:02.876Z,0.00
2023-04-27T07:02:02.937Z,70.90
2023-04-27T07:03:03.479Z,106.31
2023-04-27T07:04:02.991Z,93.56
2023-04-27T07:05:03.229Z,15.15
2023-04-27T07:06:03.176Z,66.06
2023-04-27T07:07:03.052Z,100.63
2023-04-27T07:08:05.425Z,132.26
2023-04-27T07:09:06.014Z,78.44
2023-04-27T07:10:04.070Z,79.25
2023-04-27T07:12:22.641Z,25.00
2023-04-27T07:13:22.591Z,25.00
2023-04-27T07:14:22.623Z,25.00
2023-04-27T07:15:22.616Z,25.00
2023-04-27T07:16:22.654Z,25.00
2023-04-27T07:17:23.596Z,0.00
2023-04-27T07:18:22.648Z,1.12
2023-04-27T07:19:22.602Z,19.92
2023-04-27T07:20:22.628Z,8.26
2023-04-27T07:21:22.624Z,103.36
2023-04-27T07:22:22.570Z,62.70
2023-04-27T07:23:22.734Z,85.53
2023-04-27T07:24:22.611Z,90.24
2023-04-27T07:25:22.662Z,112.43
2023-04-27T07:26:22.557Z,40.52
2023-04-27T07:27:22.591Z,8.06
2023-04-27T07:28:22.643Z,35.37
2023-04-27T07:29:27.140Z,91.76
2023-04-27T07:30:22.560Z,92.50
2023-04-27T07:31:22.649Z,72.77
2023-04-27T07:32:22.729Z,68.67
2023-04-27T07:33:22.609Z,98.97
2023-04-27T07:34:22.539Z,39.05
2023-04-27T07:35:22.516Z,92.52
2023-04-27T07:36:23.106Z,210.22
2023-04-27T07:37:22.558Z,66.32
2023-04-27T07:38:22.500Z,53.78
2023-04-27T07:39:22.532Z,26.84
2023-04-27T07:40:22.489Z,100.36
2023-04-27T07:41:22.472Z,0.00
2023-04-27T07:42:22.629Z,11.04
2023-04-27T07:43:23.144Z,0.00
2023-04-27T07:44:22.453Z,0.00
2023-04-27T07:45:23.543Z,0.00
2023-04-27T07:46:22.583Z,0.00
2023-04-27T07:47:22.567Z,0.00
2023-04-27T07:48:22.685Z,228.85
2023-04-27T07:49:22.903Z,135.57
2023-04-27T07:50:22.596Z,127.57
2023-04-27T07:51:22.609Z,131.13
2023-04-27T07:52:22.687Z,17.82
2023-04-27T07:53:22.617Z,50.98
2023-04-27T07:54:22.696Z,39.05
2023-04-27T07:55:22.685Z,0.00
2023-04-27T07:56:22.702Z,0.00
2023-04-27T07:57:22.740Z,131.58
2023-04-27T07:58:22.744Z,129.35
2023-04-27T07:59:22.719Z,128.57
2023-04-27T08:00:22.877Z,268.52
2023-04-27T08:01:22.948Z,299.03
2023-04-27T08:02:23.072Z,205.77
2023-04-27T08:03:23.393Z,192.60
2023-04-27T08:04:23.217Z,197.76
2023-04-27T08:05:23.777Z,261.52
2023-04-27T08:06:23.604Z,184.14
2023-04-27T08:07:24.091Z,186.38
2023-04-27T08:08:23.142Z,195.25
2023-04-27T08:09:23.043Z,207.67
2023-04-27T08:10:23.027Z,221.59
2023-04-27T08:11:23.088Z,240.90
2023-04-27T08:12:23.128Z,209.15
2023-04-27T08:13:24.816Z,243.46
2023-04-27T08:14:23.225Z,243.17
2023-04-27T08:15:23.264Z,191.29
2023-04-27T08:16:23.330Z,171.74
2023-04-27T08:17:23.379Z,155.41
2023-04-27T08:18:23.367Z,142.69
2023-04-27T08:19:23.318Z,136.66
2023-04-27T08:20:23.490Z,171.48
2023-04-27T08:21:23.436Z,181.46
2023-04-27T08:22:23.482Z,160.13
2023-04-27T08:23:23.656Z,192.89
2023-04-27T08:24:23.518Z,137.27
2023-04-27T08:25:23.593Z,137.33
2023-04-27T08:26:25.605Z,117.28
2023-04-27T08:27:23.613Z,142.03
2023-04-27T08:28:23.562Z,26.84
2023-04-27T08:29:27.992Z,57.69
2023-04-27T08:30:24.554Z,58.18
2023-04-27T08:31:23.549Z,49.55
2023-04-27T08:32:24.119Z,74.73
2023-04-27T08:33:23.722Z,99.04
2023-04-27T08:34:23.697Z,142.46
2023-04-27T08:35:23.514Z,198.76
2023-04-27T08:36:23.516Z,103.63
2023-04-27T08:37:23.432Z,18.12
2023-04-27T08:38:25.585Z,24.81
2023-04-27T08:39:23.460Z,75.06
2023-04-27T08:40:23.508Z,128.00
2023-04-27T08:41:23.430Z,159.99
2023-04-27T08:42:23.486Z,111.68
2023-04-27T08:43:23.542Z,150.14
2023-04-27T08:44:23.572Z,233.21
2023-04-27T08:45:23.580Z,133.26
2023-04-27T08:46:23.687Z,152.26
2023-04-27T08:47:31.398Z,205.56
2023-04-27T08:48:24.684Z,206.12
2023-04-27T08:49:23.722Z,158.14
2023-04-27T08:50:23.602Z,205.41
2023-04-27T08:51:23.576Z,115.27
2023-04-27T08:52:23.631Z,157.12
2023-04-27T08:53:23.553Z,25.00
2023-04-27T08:54:23.567Z,73.94
2023-04-27T08:55:23.549Z,73.10
2023-04-27T08:56:23.535Z,59.64
2023-04-27T08:57:23.582Z,51.95
2023-04-27T08:58:23.566Z,58.59
2023-04-27T08:59:23.619Z,94.17
2023-04-27T09:00:23.543Z,129.82
2023-04-27T09:01:23.598Z,125.12
2023-04-27T09:02:23.599Z,72.85
2023-04-27T09:03:23.827Z,0.00
2023-04-27T09:04:24.025Z,0.00
2023-04-27T09:05:23.759Z,0.00
2023-04-27T09:06:23.766Z,46.28
2023-04-27T09:07:23.780Z,17.10
2023-04-27T09:08:23.816Z,24.87
2023-04-27T09:09:23.922Z,0.00
2023-04-27T09:10:23.861Z,0.00
2023-04-27T09:11:23.868Z,2.50
2023-04-27T09:12:23.876Z,0.00
2023-04-27T09:13:23.879Z,19.54
2023-04-27T09:14:23.910Z,43.41
2023-04-27T09:15:23.946Z,91.54
2023-04-27T09:16:24.063Z,37.75
2023-04-27T09:17:23.981Z,50.84
2023-04-27T09:18:24.051Z,138.33
2023-04-27T09:19:24.059Z,128.12
2023-04-27T09:20:24.105Z,106.48
2023-04-27T09:21:24.149Z,131.70
2023-04-27T09:22:24.182Z,68.23
2023-04-27T09:23:24.188Z,57.41
2023-04-27T09:24:24.165Z,85.96
2023-04-27T09:25:24.173Z,138.45
2023-04-27T09:26:24.251Z,151.00
2023-04-27T09:27:24.262Z,82.80
2023-04-27T09:28:24.321Z,30.72
2023-04-27T09:29:24.312Z,51.90
2023-04-27T09:30:24.311Z,14.46
2023-04-27T09:31:24.433Z,38.26
2023-04-27T09:32:24.498Z,63.92
2023-04-27T09:33:24.486Z,77.61
2023-04-27T09:34:24.505Z,17.14
2023-04-27T09:35:24.558Z,25.61
2023-04-27T09:36:25.010Z,23.07
2023-04-27T09:37:24.549Z,42.83
2023-04-27T09:38:24.582Z,13.66
2023-04-27T09:39:24.646Z,25.61
2023-04-27T09:40:24.648Z,51.42
2023-04-27T09:41:24.676Z,85.86
2023-04-27T09:42:24.704Z,65.28
2023-04-27T09:43:24.691Z,55.35
2023-04-27T09:44:25.185Z,82.13
2023-04-27T09:45:24.798Z,100.70
2023-04-27T09:46:24.867Z,17.30
2023-04-27T09:47:25.019Z,0.00
2023-04-27T09:48:24.868Z,2.98
2023-04-27T09:49:25.160Z,53.95
2023-04-27T09:50:24.927Z,62.17
2023-04-27T09:51:24.998Z,56.95
2023-04-27T09:52:25.074Z,24.95
2023-04-27T09:53:25.684Z,0.00
2023-04-27T09:54:25.215Z,0.00
2023-04-27T09:55:25.083Z,9.38
2023-04-27T09:56:25.151Z,41.12
2023-04-27T09:57:25.113Z,56.96
2023-04-27T09:58:25.189Z,18.46
2023-04-27T09:59:25.280Z,87.37
2023-04-27T10:00:25.236Z,12.00
2023-04-27T10:01:25.403Z,17.31
2023-04-27T10:02:25.978Z,37.62
2023-04-27T10:03:25.444Z,7.46
2023-04-27T10:04:25.739Z,32.68
2023-04-27T10:05:25.382Z,39.24
2023-04-27T10:06:25.380Z,39.51
2023-04-27T10:07:25.446Z,64.23
2023-04-27T10:08:25.491Z,60.72
2023-04-27T10:09:25.589Z,28.94
2023-04-27T10:10:25.506Z,52.91
2023-04-27T10:11:26.172Z,41.68
2023-04-27T10:12:25.768Z,60.24
2023-04-27T10:13:25.735Z,31.52
2023-04-27T10:14:25.703Z,25.53
2023-04-27T10:15:25.762Z,59.61
2023-04-27T10:16:25.872Z,63.47
2023-04-27T10:17:25.808Z,90.06
2023-04-27T10:18:26.163Z,87.99
2023-04-27T10:19:25.906Z,102.27
2023-04-27T10:20:25.906Z,103.10
2023-04-27T10:21:25.912Z,65.88
2023-04-27T10:22:25.957Z,51.31
2023-04-27T10:23:25.961Z,54.67
2023-04-27T10:24:26.026Z,64.77
2023-04-27T10:25:26.037Z,66.93
2023-04-27T10:26:26.080Z,64.83
2023-04-27T10:27:26.046Z,55.22
2023-04-27T10:28:26.111Z,56.44
2023-04-27T10:29:26.197Z,44.12
2023-04-27T10:30:26.211Z,30.80
2023-04-27T10:31:26.283Z,33.70
2023-04-27T10:32:26.355Z,41.96
2023-04-27T10:33:26.306Z,69.45
2023-04-27T10:34:26.360Z,76.88
2023-04-27T10:35:26.477Z,97.89
2023-04-27T10:36:26.470Z,59.73
2023-04-27T10:37:26.449Z,61.59
2023-04-27T10:38:26.382Z,31.37
2023-04-27T10:39:39.707Z,33.51
2023-04-27T10:40:27.430Z,34.20
2023-04-27T10:41:26.397Z,37.09
2023-04-27T10:42:26.412Z,46.58
2023-04-27T10:43:26.410Z,66.72
2023-04-27T10:44:26.663Z,109.83
2023-04-27T10:45:27.493Z,83.44
2023-04-27T10:46:26.426Z,49.24
2023-04-27T10:47:26.377Z,39.83
2023-04-27T10:48:26.424Z,74.65
2023-04-27T10:49:26.337Z,80.98
2023-04-27T10:50:26.424Z,74.19
2023-04-27T10:51:26.361Z,56.20
2023-04-27T10:52:26.348Z,58.90
2023-04-27T10:53:26.296Z,119.65
2023-04-27T10:54:26.334Z,109.64
2023-04-27T10:55:26.303Z,57.88
2023-04-27T10:56:26.285Z,59.72
2023-04-27T10:57:26.296Z,51.56
2023-04-27T10:58:34.644Z,74.98
2023-04-27T10:59:27.275Z,22.78
2023-04-27T11:00:26.317Z,32.09
2023-04-27T11:01:26.313Z,26.16
2023-04-27T11:02:26.385Z,22.71
2023-04-27T11:03:26.294Z,41.28
2023-04-27T11:04:26.277Z,3.48
2023-04-27T11:05:26.304Z,7.05
2023-04-27T11:06:26.259Z,50.46
2023-04-27T11:07:26.368Z,26.69
2023-04-27T11:08:26.260Z,32.34
2023-04-27T11:09:26.291Z,60.20
2023-04-27T11:10:26.263Z,73.06
2023-04-27T11:11:26.357Z,84.00
2023-04-27T11:12:26.328Z,88.83
2023-04-27T11:13:26.356Z,40.19
2023-04-27T11:14:26.392Z,53.66
2023-04-27T11:15:26.410Z,63.40
2023-04-27T11:16:26.563Z,146.59
2023-04-27T11:17:26.512Z,140.83
2023-04-27T11:18:26.644Z,77.50
2023-04-27T11:19:26.642Z,75.74
2023-04-27T11:20:26.710Z,139.81
2023-04-27T11:21:26.630Z,112.32
2023-04-27T11:22:26.679Z,70.09
2023-04-27T11:23:26.750Z,86.04
2023-04-27T11:24:26.742Z,81.79
2023-04-27T11:25:26.788Z,73.89
2023-04-27T11:26:26.896Z,60.09
2023-04-27T11:27:26.894Z,59.19
2023-04-27T11:28:26.867Z,77.99
2023-04-27T11:29:27.208Z,66.34
2023-04-27T11:30:26.998Z,56.04
2023-04-27T11:31:27.032Z,55.85
2023-04-27T11:32:27.015Z,51.24
2023-04-27T11:33:27.080Z,46.71
2023-04-27T11:34:27.161Z,67.28
2023-04-27T11:35:27.035Z,56.05
2023-04-27T11:36:27.089Z,59.69
2023-04-27T11:37:27.150Z,32.51
2023-04-27T11:38:27.145Z,52.54
2023-04-27T11:39:27.269Z,90.43
2023-04-27T11:40:27.232Z,114.62
2023-04-27T11:41:27.209Z,84.57
2023-04-27T11:42:27.292Z,71.56
2023-04-27T11:43:27.311Z,76.63
2023-04-27T11:44:27.329Z,97.44
2023-04-27T11:45:27.317Z,79.42
2023-04-27T11:46:27.361Z,82.22
2023-04-27T11:47:27.459Z,87.18
2023-04-27T11:48:27.431Z,59.21
2023-04-27T11:49:27.498Z,43.84
2023-04-27T11:50:27.560Z,45.63
2023-04-27T11:51:27.600Z,49.56
2023-04-27T11:52:27.608Z,29.57
2023-04-27T11:53:27.660Z,44.85
2023-04-27T11:54:27.737Z,38.38
2023-04-27T11:55:27.807Z,47.93
2023-04-27T11:56:27.812Z,89.28
2023-04-27T11:57:27.789Z,81.05
2023-04-27T11:58:27.830Z,48.78
2023-04-27T11:59:27.823Z,54.66
2023-04-27T12:00:27.874Z,36.55
2023-04-27T12:01:36.950Z,24.78
2023-04-27T12:02:29.098Z,11.56
2023-04-27T12:03:28.179Z,9.57
2023-04-27T12:04:28.064Z,23.89
2023-04-27T12:05:28.019Z,33.29
2023-04-27T12:06:33.006Z,39.04
2023-04-27T12:07:28.837Z,26.26
2023-04-27T12:08:27.871Z,25.71
2023-04-27T12:09:27.887Z,0.30
2023-04-27T12:10:27.840Z,6.86
2023-04-27T12:11:27.844Z,0.00
2023-04-27T12:12:27.818Z,27.71
2023-04-27T12:13:27.849Z,39.10
2023-04-27T12:14:27.820Z,31.50
2023-04-27T12:15:27.817Z,48.61
2023-04-27T12:16:27.810Z,55.48
2023-04-27T12:17:27.837Z,75.16
2023-04-27T12:18:27.790Z,77.08
2023-04-27T12:19:27.761Z,82.62
2023-04-27T12:20:27.857Z,50.89
2023-04-27T12:21:27.867Z,29.17
2023-04-27T12:22:27.875Z,44.99
2023-04-27T12:23:27.869Z,51.75
2023-04-27T12:24:27.920Z,30.44
2023-04-27T12:25:27.992Z,23.12
2023-04-27T12:26:28.015Z,30.57
2023-04-27T12:27:28.037Z,25.68
2023-04-27T12:28:28.054Z,84.55
2023-04-27T12:29:28.053Z,61.33
2023-04-27T12:30:28.078Z,64.85
2023-04-27T12:31:28.246Z,77.28
2023-04-27T12:32:28.154Z,79.68
2023-04-27T12:33:28.201Z,54.11
2023-04-27T12:34:28.494Z,54.51
2023-04-27T12:35:28.283Z,44.39
2023-04-27T12:36:28.251Z,109.84
2023-04-27T12:37:28.293Z,112.73
2023-04-27T12:38:28.358Z,157.72
2023-04-27T12:39:28.395Z,115.75
2023-04-27T12:40:28.483Z,70.92
2023-04-27T12:41:28.459Z,46.78